Time;durP1;ratioP1;P1;durP2;ratioP2;P2;SDS_P1;SDS_P2;PMS_P1;PMS_P2;Temp;Humidity;BMP_temperature;BMP_pressure;BME280_temperature;BME280_humidity;BME280_pressure;Samples;Min_cycle;Max_cycle;Signal;HPM_P1;HPM_P2
2021/12/18 00:00:13;;;;;;;4.97;3.92;;;9.90;99.90;;;;;;5029717;28;20032;-42
2021/12/18 00:02:39;;;;;;;4.45;3.85;;;9.90;99.90;;;;;;5040562;28;20025;-43
2021/12/18 00:05:05;;;;;;;5.85;4.00;;;9.90;99.90;;;;;;5028458;28;20013;-43
2021/12/18 00:07:31;;;;;;;5.93;4.32;;;9.90;99.90;;;;;;5040955;28;20472;-43
2021/12/18 00:09:57;;;;;;;6.05;4.75;;;9.90;99.90;;;;;;5028756;28;20516;-42
2021/12/18 00:12:23;;;;;;;8.15;5.28;;;9.90;99.90;;;;;;5039744;28;20188;-43
2021/12/18 00:14:50;;;;;;;5.78;4.72;;;9.90;99.90;;;;;;5029518;28;20026;-43
2021/12/18 00:17:16;;;;;;;5.57;4.40;;;9.90;99.90;;;;;;5037910;28;20021;-44
2021/12/18 00:19:41;;;;;;;4.93;3.90;;;9.90;99.90;;;;;;5030911;28;20462;-44
2021/12/18 00:22:07;;;;;;;6.25;3.90;;;9.90;99.90;;;;;;5001344;28;998762;-43
2021/12/18 00:24:33;;;;;;;5.00;3.65;;;9.90;99.90;;;;;;5035427;28;20030;-43
2021/12/18 00:26:59;;;;;;;4.82;3.78;;;9.90;99.90;;;;;;5033421;28;20789;-43
2021/12/18 00:29:25;;;;;;;5.07;4.05;;;9.90;99.90;;;;;;5037804;28;20493;-43
2021/12/18 00:31:51;;;;;;;6.07;4.80;;;9.90;99.90;;;;;;5030828;28;20019;-43
2021/12/18 00:34:18;;;;;;;7.78;5.43;;;10.00;99.90;;;;;;5040382;28;20029;-43
2021/12/18 00:36:43;;;;;;;10.93;8.13;;;9.90;99.90;;;;;;5030483;28;20037;-43
2021/12/18 00:39:09;;;;;;;14.60;10.48;;;10.00;99.90;;;;;;5040711;28;20587;-44
2021/12/18 00:41:59;;;;;;;10.35;8.68;;;9.90;99.90;;;;;;5029013;28;20079;-44
2021/12/18 00:44:20;;;;;;;8.23;6.22;;;9.90;99.90;;;;;;5039017;28;20026;-44
2021/12/18 00:46:46;;;;;;;7.93;5.78;;;9.90;99.90;;;;;;5028656;28;20750;-44
2021/12/18 00:49:15;;;;;;;5.50;4.78;;;9.90;99.90;;;;;;5041679;28;20025;-42
2021/12/18 00:51:41;;;;;;;7.82;6.00;;;9.90;99.90;;;;;;5029313;28;20027;-42
2021/12/18 00:54:06;;;;;;;6.82;5.70;;;9.90;99.90;;;;;;5040505;28;20029;-42
2021/12/18 00:56:33;;;;;;;6.28;5.00;;;9.80;99.90;;;;;;5029469;28;20034;-42
2021/12/18 00:58:58;;;;;;;7.65;4.88;;;9.80;99.90;;;;;;5040811;28;20032;-43
2021/12/18 01:01:26;;;;;;;6.03;4.78;;;9.80;99.90;;;;;;5028688;28;20021;-44
2021/12/18 01:03:52;;;;;;;5.47;4.35;;;9.80;99.90;;;;;;5038638;28;20037;-43
2021/12/18 01:06:19;;;;;;;5.50;4.32;;;9.80;99.90;;;;;;5031546;28;20063;-43
2021/12/18 01:08:46;;;;;;;5.05;4.07;;;9.80;99.90;;;;;;5034831;28;20103;-43
2021/12/18 01:24:39;;;;;;;4.57;3.85;;;9.80;99.90;;;;;;5038763;28;20070;-43
2021/12/18 01:27:04;;;;;;;3.67;3.20;;;9.80;99.90;;;;;;5030284;28;20026;-43
2021/12/18 01:29:30;;;;;;;4.40;3.65;;;9.80;99.90;;;;;;5035007;28;20464;-42
2021/12/18 01:31:55;;;;;;;4.32;3.75;;;9.80;99.90;;;;;;5033424;28;20145;-41
2021/12/18 01:34:21;;;;;;;4.68;4.00;;;9.80;99.90;;;;;;5033662;28;20139;-42
2021/12/18 01:36:47;;;;;;;4.60;3.38;;;9.80;99.90;;;;;;5034919;28;20056;-44
2021/12/18 01:39:12;;;;;;;5.40;3.78;;;9.80;99.90;;;;;;5031465;28;20071;-43
2021/12/18 01:42:47;;;;;;;4.47;3.63;;;9.80;99.90;;;;;;5038249;28;20053;-43
2021/12/18 01:44:51;;;;;;;4.40;3.53;;;9.80;99.90;;;;;;5027196;28;20029;-43
2021/12/18 01:52:53;;;;;;;4.45;3.50;;;9.90;99.90;;;;;;5030812;28;20048;-44
2021/12/18 01:55:30;;;;;;;5.00;3.78;;;9.90;99.90;;;;;;5040317;28;20021;-44
2021/12/18 01:57:56;;;;;;;5.07;3.58;;;9.90;99.90;;;;;;5043603;28;20365;-42
2021/12/18 02:00:28;;;;;;;5.20;4.13;;;9.90;99.90;;;;;;5041639;28;20398;-42
2021/12/18 02:02:54;;;;;;;5.75;4.47;;;9.90;99.90;;;;;;5042935;28;20024;-43
2021/12/18 02:05:20;;;;;;;7.85;4.20;;;9.90;99.90;;;;;;5042349;28;20584;-44
2021/12/18 02:07:45;;;;;;;5.70;4.43;;;9.90;99.90;;;;;;5039341;28;20119;-43
2021/12/18 02:10:19;;;;;;;5.22;4.10;;;9.90;99.90;;;;;;5046026;28;20017;-44
2021/12/18 02:20:47;;;;;;;5.75;4.25;;;10.00;99.90;;;;;;5044098;28;20133;-43
2021/12/18 02:23:13;;;;;;;6.55;4.40;;;9.90;99.90;;;;;;5039183;28;20056;-43
2021/12/18 02:25:39;;;;;;;5.70;4.20;;;9.90;99.90;;;;;;5044759;28;20401;-44
2021/12/18 02:28:12;;;;;;;6.53;5.03;;;9.90;99.90;;;;;;5036616;28;20091;-44
2021/12/18 02:30:38;;;;;;;7.57;5.22;;;9.90;99.90;;;;;;5045193;28;20425;-42
2021/12/18 02:33:04;;;;;;;6.75;4.93;;;9.90;99.90;;;;;;5035322;28;20140;-44
2021/12/18 02:35:32;;;;;;;7.72;5.22;;;9.90;99.90;;;;;;5046077;28;20031;-42
2021/12/18 02:38:13;;;;;;;6.30;5.07;;;9.80;99.90;;;;;;5038256;28;20025;-42
2021/12/18 02:43:47;;;;;;;7.00;5.47;;;9.80;99.90;;;;;;5036278;28;20381;-43
2021/12/18 02:46:17;;;;;;;7.72;4.95;;;9.80;99.90;;;;;;5027383;28;20039;-45
2021/12/18 02:48:42;;;;;;;8.35;5.50;;;9.80;99.90;;;;;;5037781;28;20045;-44
2021/12/18 02:51:10;;;;;;;7.50;4.70;;;9.80;99.90;;;;;;5028197;28;20026;-43
2021/12/18 02:53:37;;;;;;;8.73;6.05;;;9.80;99.90;;;;;;5037718;28;20026;-44
2021/12/18 02:56:05;;;;;;;6.18;4.85;;;9.70;99.90;;;;;;5026742;28;20037;-43
2021/12/18 02:58:35;;;;;;;7.72;5.40;;;9.70;99.90;;;;;;5034436;28;20043;-43
2021/12/18 03:01:00;;;;;;;8.18;5.50;;;9.70;99.90;;;;;;5045728;28;20025;-43
2021/12/18 03:03:30;;;;;;;7.88;5.97;;;9.70;99.90;;;;;;5034445;28;20036;-44
2021/12/18 03:06:09;;;;;;;8.07;5.72;;;9.70;99.90;;;;;;5047029;28;20423;-43
2021/12/18 03:08:52;;;;;;;8.25;5.90;;;9.70;99.90;;;;;;5032810;28;20033;-43
2021/12/18 03:22:48;;;;;;;7.57;5.65;;;9.60;99.90;;;;;;5027423;28;20504;-44
2021/12/18 03:25:19;;;;;;;7.20;5.60;;;9.50;99.90;;;;;;5027412;28;20052;-43
2021/12/18 03:27:45;;;;;;;8.52;5.70;;;9.50;99.90;;;;;;5044455;28;20029;-43
2021/12/18 03:30:11;;;;;;;7.93;5.60;;;9.50;99.90;;;;;;5035623;28;20079;-43
2021/12/18 03:32:37;;;;;;;9.02;5.85;;;9.50;99.90;;;;;;5045187;28;20392;-43
2021/12/18 03:35:04;;;;;;;8.40;5.68;;;9.40;99.90;;;;;;5035358;28;20032;-42
2021/12/18 03:37:30;;;;;;;9.80;5.68;;;9.40;99.90;;;;;;5045154;28;20051;-43
2021/12/18 03:39:55;;;;;;;7.35;5.30;;;9.40;99.90;;;;;;5034755;28;20151;-43
2021/12/18 03:42:21;;;;;;;6.78;4.78;;;9.40;99.90;;;;;;5046710;28;20062;-43
2021/12/18 03:44:47;;;;;;;7.43;5.15;;;9.40;99.90;;;;;;5032041;28;20439;-44
2021/12/18 03:47:13;;;;;;;6.07;3.97;;;9.30;99.90;;;;;;5047012;28;20065;-43
2021/12/18 03:49:39;;;;;;;5.65;4.35;;;9.40;99.90;;;;;;5033807;28;20535;-43
2021/12/18 03:52:04;;;;;;;5.95;4.53;;;9.40;99.90;;;;;;5045632;28;20408;-43
2021/12/18 03:54:30;;;;;;;6.82;5.07;;;9.30;99.90;;;;;;5037072;28;20397;-43
2021/12/18 03:56:56;;;;;;;6.68;4.57;;;9.30;99.90;;;;;;5042052;28;20028;-44
2021/12/18 03:59:21;;;;;;;7.55;4.10;;;9.30;99.90;;;;;;5039658;28;20060;-43
2021/12/18 04:01:47;;;;;;;6.78;4.60;;;9.30;99.90;;;;;;5040297;28;20473;-44
2021/12/18 04:04:13;;;;;;;7.20;5.13;;;9.30;99.90;;;;;;5042004;28;20021;-43
2021/12/18 04:06:39;;;;;;;6.85;4.90;;;9.30;99.90;;;;;;5037714;28;20037;-43
2021/12/18 04:09:06;;;;;;;6.97;4.70;;;9.30;99.90;;;;;;5044403;28;20107;-43
2021/12/18 04:11:32;;;;;;;7.55;5.00;;;9.30;99.90;;;;;;5036612;28;20032;-42
2021/12/18 04:13:58;;;;;;;7.20;4.82;;;9.30;99.90;;;;;;5047883;28;20536;-44
2021/12/18 04:16:24;;;;;;;8.25;4.60;;;9.30;99.90;;;;;;5038316;28;20104;-43
2021/12/18 04:18:49;;;;;;;7.05;4.72;;;9.30;99.90;;;;;;5049208;28;20154;-44
2021/12/18 04:21:15;;;;;;;8.63;5.05;;;9.30;99.90;;;;;;5036949;28;20479;-43
2021/12/18 04:23:41;;;;;;;7.88;5.43;;;9.30;99.90;;;;;;5049608;28;20900;-43
2021/12/18 04:26:06;;;;;;;7.90;5.43;;;9.30;99.90;;;;;;5036447;28;20045;-42
2021/12/18 04:28:32;;;;;;;8.15;5.82;;;9.30;99.90;;;;;;5049608;28;20044;-43
2021/12/18 04:30:57;;;;;;;9.35;5.70;;;9.30;99.90;;;;;;5038422;28;20052;-44
2021/12/18 04:33:23;;;;;;;8.07;5.38;;;9.30;99.90;;;;;;5047484;28;20032;-43
2021/12/18 04:35:49;;;;;;;8.35;5.35;;;9.30;99.90;;;;;;5040649;28;20037;-43
2021/12/18 04:38:15;;;;;;;8.23;5.40;;;9.40;99.90;;;;;;5046298;28;20021;-43
2021/12/18 04:40:42;;;;;;;7.38;4.95;;;9.40;99.90;;;;;;5042234;28;20022;-42
2021/12/18 04:43:08;;;;;;;7.05;4.82;;;9.40;99.90;;;;;;5043192;28;20072;-43
2021/12/18 04:45:33;;;;;;;7.95;5.28;;;9.40;99.90;;;;;;5045648;28;20453;-44
2021/12/18 04:47:59;;;;;;;8.45;5.47;;;9.40;99.90;;;;;;5039357;28;20033;-43
2021/12/18 04:50:25;;;;;;;7.57;5.07;;;9.40;99.90;;;;;;5047989;28;20022;-43
2021/12/18 04:52:51;;;;;;;6.63;4.68;;;9.40;99.90;;;;;;5038197;28;20032;-43
2021/12/18 04:55:18;;;;;;;6.15;4.40;;;9.40;99.90;;;;;;5047376;28;20032;-44
2021/12/18 04:57:44;;;;;;;7.22;5.00;;;9.40;99.90;;;;;;5037389;28;20559;-43
2021/12/18 05:00:13;;;;;;;6.80;4.45;;;9.40;99.90;;;;;;5048485;28;20120;-44
2021/12/18 05:02:42;;;;;;;6.25;4.40;;;9.40;99.90;;;;;;5035627;28;20029;-44
2021/12/18 05:05:10;;;;;;;7.22;4.53;;;9.40;99.90;;;;;;5049118;28;20032;-43
2021/12/18 05:07:36;;;;;;;6.15;4.40;;;9.50;99.90;;;;;;5035486;28;20104;-44
2021/12/18 05:10:04;;;;;;;6.65;4.55;;;9.40;99.90;;;;;;5048746;28;20500;-43
2021/12/18 05:12:30;;;;;;;4.70;3.53;;;9.40;99.90;;;;;;5036278;28;20045;-44
2021/12/18 05:14:55;;;;;;;6.03;3.80;;;9.30;99.90;;;;;;5048080;28;20452;-43
2021/12/18 05:17:21;;;;;;;5.10;3.75;;;9.40;99.90;;;;;;5038966;28;20699;-43
2021/12/18 05:19:46;;;;;;;4.47;3.47;;;9.30;99.90;;;;;;5045803;28;20041;-43
2021/12/18 05:22:12;;;;;;;6.03;3.88;;;9.30;99.90;;;;;;5039214;28;20045;-44
2021/12/18 05:24:37;;;;;;;6.97;3.70;;;9.30;99.90;;;;;;5042987;28;20498;-44
2021/12/18 05:27:03;;;;;;;6.82;3.40;;;9.30;99.90;;;;;;5044338;28;20028;-44
2021/12/18 05:29:29;;;;;;;4.57;3.40;;;9.30;99.90;;;;;;5040064;28;20035;-42
2021/12/18 05:31:54;;;;;;;5.47;3.53;;;9.30;99.90;;;;;;5046680;28;20379;-43
2021/12/18 05:34:25;;;;;;;5.32;3.33;;;9.30;99.90;;;;;;5037939;28;20155;-43
2021/12/18 05:39:28;;;;;;;3.40;2.80;;;9.20;99.90;;;;;;5037558;28;20033;-43
2021/12/18 05:41:55;;;;;;;4.03;3.13;;;9.20;99.90;;;;;;5047111;28;20025;-42
2021/12/18 05:44:23;;;;;;;3.90;2.60;;;9.20;99.90;;;;;;5036476;28;20031;-43
2021/12/18 05:46:49;;;;;;;3.60;2.50;;;9.10;99.90;;;;;;5047153;28;20542;-43
2021/12/18 05:49:14;;;;;;;4.22;3.03;;;9.10;99.90;;;;;;5035486;28;20116;-43
2021/12/18 05:51:42;;;;;;;3.78;2.35;;;9.10;99.90;;;;;;5048312;28;20183;-42
2021/12/18 05:54:08;;;;;;;3.60;2.60;;;9.10;99.90;;;;;;5035298;28;20087;-43
2021/12/18 05:56:33;;;;;;;3.72;2.42;;;9.10;99.90;;;;;;5047350;28;20424;-42
2021/12/18 05:58:59;;;;;;;3.00;2.20;;;9.10;99.90;;;;;;5036138;28;20365;-43
2021/12/18 06:01:26;;;;;;;3.38;2.47;;;9.10;99.90;;;;;;5047261;28;20538;-42
2021/12/18 06:03:52;;;;;;;4.22;2.50;;;9.10;99.90;;;;;;5037712;28;20110;-43
2021/12/18 06:06:18;;;;;;;3.47;2.30;;;9.10;99.90;;;;;;5045101;28;20516;-42
2021/12/18 06:08:43;;;;;;;2.38;1.88;;;9.10;99.90;;;;;;5040424;28;20039;-43
2021/12/18 06:11:13;;;;;;;4.55;2.15;;;9.10;99.90;;;;;;5040782;28;20112;-43
2021/12/18 06:13:41;;;;;;;2.55;1.95;;;9.10;99.90;;;;;;5042921;28;20021;-43
2021/12/18 06:16:08;;;;;;;2.97;2.20;;;9.10;99.90;;;;;;5040076;28;20033;-43
2021/12/18 06:18:35;;;;;;;2.97;2.17;;;9.10;99.90;;;;;;5043742;28;20021;-42
2021/12/18 06:21:01;;;;;;;4.80;1.80;;;9.10;99.90;;;;;;5038042;28;20119;-43
2021/12/18 06:23:26;;;;;;;1.90;1.42;;;9.10;99.90;;;;;;5045765;28;20025;-43
2021/12/18 06:25:52;;;;;;;7.15;2.03;;;9.00;99.90;;;;;;5035456;28;20033;-42
2021/12/18 06:28:17;;;;;;;2.33;1.70;;;9.00;99.90;;;;;;5046567;28;20059;-44
2021/12/18 06:30:43;;;;;;;3.80;1.63;;;9.00;99.90;;;;;;5036011;28;20469;-43
2021/12/18 06:33:09;;;;;;;3.65;1.58;;;8.90;99.90;;;;;;5046405;28;20357;-43
2021/12/18 06:35:34;;;;;;;1.92;1.52;;;8.80;99.90;;;;;;5034622;28;20021;-43
2021/12/18 06:38:00;;;;;;;1.60;1.30;;;8.80;99.90;;;;;;5047196;28;20029;-44
2021/12/18 06:40:25;;;;;;;2.17;1.60;;;8.80;99.90;;;;;;5034323;28;20033;-44
2021/12/18 06:42:51;;;;;;;2.45;1.70;;;8.70;99.90;;;;;;5046859;28;20060;-43
2021/12/18 06:45:16;;;;;;;2.97;1.50;;;8.70;99.90;;;;;;5037553;28;20036;-44
2021/12/18 06:47:42;;;;;;;1.58;1.30;;;8.60;99.90;;;;;;5043242;28;20033;-44
2021/12/18 06:50:08;;;;;;;1.73;1.40;;;8.50;99.90;;;;;;5039712;28;20033;-43
2021/12/18 06:52:34;;;;;;;1.73;1.10;;;8.40;99.90;;;;;;5041313;28;20035;-43
2021/12/18 06:54:59;;;;;;;4.32;1.40;;;8.40;99.90;;;;;;5034035;28;20025;-44
2021/12/18 06:57:25;;;;;;;1.23;1.08;;;8.40;99.90;;;;;;5035216;28;20021;-43
2021/12/18 06:59:50;;;;;;;1.58;1.00;;;8.40;99.90;;;;;;5027918;28;20797;-43
2021/12/18 07:02:16;;;;;;;1.48;1.10;;;8.40;99.90;;;;;;5038148;28;20022;-44
2021/12/18 07:04:42;;;;;;;1.10;0.90;;;8.30;99.90;;;;;;5028358;28;21177;-45
2021/12/18 07:07:08;;;;;;;1.52;1.05;;;8.30;99.90;;;;;;5037565;28;20033;-42
2021/12/18 07:09:33;;;;;;;1.08;0.93;;;8.30;99.90;;;;;;5027094;28;20497;-42
2021/12/18 07:11:59;;;;;;;3.60;1.00;;;8.30;99.90;;;;;;5038952;28;20461;-43
2021/12/18 07:14:25;;;;;;;1.75;1.17;;;8.30;99.90;;;;;;5026422;28;20039;-43
2021/12/18 07:16:50;;;;;;;1.27;0.95;;;8.30;99.90;;;;;;5039546;28;20021;-42
2021/12/18 07:19:16;;;;;;;7.03;1.10;;;8.30;99.90;;;;;;5027159;28;20620;-43
2021/12/18 07:21:41;;;;;;;1.17;0.93;;;8.20;99.90;;;;;;5037403;28;20053;-43
2021/12/18 07:24:07;;;;;;;1.67;0.95;;;8.20;99.90;;;;;;5028018;28;20031;-43
2021/12/18 07:26:33;;;;;;;1.42;1.00;;;8.20;99.90;;;;;;5035521;28;20479;-43
2021/12/18 07:29:00;;;;;;;1.40;0.88;;;8.20;99.90;;;;;;5029812;28;20124;-44
2021/12/18 07:31:26;;;;;;;2.00;1.00;;;8.20;99.90;;;;;;5033408;28;20105;-43
2021/12/18 07:33:52;;;;;;;1.27;1.13;;;8.20;99.90;;;;;;5028856;28;20084;-43
2021/12/18 07:36:17;;;;;;;1.17;1.08;;;8.30;99.90;;;;;;5028835;28;20685;-43
2021/12/18 07:38:43;;;;;;;2.47;0.90;;;8.30;99.90;;;;;;5035088;28;20091;-44
2021/12/18 07:41:10;;;;;;;1.23;0.88;;;8.30;99.90;;;;;;5027198;28;20045;-43
2021/12/18 07:43:35;;;;;;;1.58;0.95;;;8.40;99.90;;;;;;5035797;28;20022;-44
2021/12/18 07:46:01;;;;;;;1.63;1.15;;;8.40;99.90;;;;;;5028693;28;20022;-42
2021/12/18 07:48:26;;;;;;;1.63;1.40;;;8.40;99.90;;;;;;5040810;28;20034;-43
2021/12/18 07:50:52;;;;;;;1.85;1.30;;;8.30;99.90;;;;;;5029261;28;20037;-43
2021/12/18 07:53:17;;;;;;;1.60;1.40;;;8.30;99.90;;;;;;5042574;28;20025;-43
2021/12/18 07:55:43;;;;;;;1.20;1.00;;;8.30;99.90;;;;;;5030080;28;20543;-43
2021/12/18 07:58:10;;;;;;;1.05;0.95;;;8.30;99.90;;;;;;5041250;28;20415;-47
2021/12/18 08:00:35;;;;;;;1.13;1.00;;;8.20;99.90;;;;;;5029815;28;20109;-44
2021/12/18 08:03:01;;;;;;;1.25;1.00;;;8.20;99.90;;;;;;5039034;28;20104;-43
2021/12/18 08:05:26;;;;;;;0.85;0.75;;;8.20;99.90;;;;;;5031032;28;20124;-43
2021/12/18 08:07:52;;;;;;;2.15;1.80;;;8.20;99.90;;;;;;5037524;28;20029;-43
2021/12/18 08:10:17;;;;;;;1.75;1.50;;;8.20;99.90;;;;;;5033389;28;20025;-44
2021/12/18 08:12:43;;;;;;;1.20;1.10;;;8.10;99.90;;;;;;5034494;28;20010;-42
2021/12/18 08:15:09;;;;;;;1.50;1.20;;;8.10;99.90;;;;;;5036378;28;20014;-42
2021/12/18 08:17:36;;;;;;;1.50;1.20;;;8.10;99.90;;;;;;5031430;28;20021;-43
2021/12/18 08:20:06;;;;;;;1.63;1.20;;;8.10;99.90;;;;;;5038782;28;20035;-43
2021/12/18 08:22:32;;;;;;;1.85;1.33;;;8.10;99.90;;;;;;5030332;28;20037;-43
2021/12/18 08:24:58;;;;;;;1.58;1.20;;;8.10;99.90;;;;;;5039018;28;20041;-43
2021/12/18 08:27:24;;;;;;;1.45;1.10;;;8.10;99.90;;;;;;5030723;28;20029;-43
2021/12/18 08:29:49;;;;;;;1.67;0.90;;;8.20;99.90;;;;;;5039935;28;20032;-43
2021/12/18 08:32:15;;;;;;;1.67;1.13;;;8.20;99.90;;;;;;5029062;28;20018;-44
2021/12/18 08:34:41;;;;;;;1.75;0.98;;;8.20;99.90;;;;;;5040850;28;20103;-45
2021/12/18 08:37:06;;;;;;;1.13;0.90;;;8.20;99.90;;;;;;5028949;28;20057;-44
2021/12/18 08:39:32;;;;;;;1.00;0.82;;;8.20;99.90;;;;;;5040754;28;20461;-42
2021/12/18 08:41:59;;;;;;;0.95;0.85;;;8.20;99.90;;;;;;5028853;28;20030;-46
2021/12/18 08:44:25;;;;;;;1.20;1.10;;;8.20;99.90;;;;;;5039095;28;20535;-44
2021/12/18 08:46:50;;;;;;;1.75;1.30;;;8.20;99.90;;;;;;5029892;28;20029;-42
2021/12/18 08:49:16;;;;;;;1.52;0.98;;;8.20;99.90;;;;;;5036630;28;20033;-44
2021/12/18 08:51:43;;;;;;;0.93;0.80;;;8.20;99.90;;;;;;5032987;28;20524;-44
2021/12/18 08:54:08;;;;;;;1.10;0.80;;;8.20;99.90;;;;;;5033787;28;20044;-44
2021/12/18 08:56:34;;;;;;;1.30;1.00;;;8.20;99.90;;;;;;5034877;28;20029;-42
2021/12/18 08:59:00;;;;;;;1.83;1.23;;;8.20;99.90;;;;;;5031350;28;20045;-42
2021/12/18 09:01:27;;;;;;;1.17;1.05;;;8.20;99.90;;;;;;5036992;28;20021;-43
2021/12/18 09:03:53;;;;;;;1.20;1.10;;;8.20;99.90;;;;;;5029548;28;20022;-44
2021/12/18 09:06:19;;;;;;;1.00;0.90;;;8.30;99.90;;;;;;5039320;28;20059;-42
2021/12/18 09:08:45;;;;;;;1.00;0.90;;;8.30;99.90;;;;;;5029322;28;20041;-43
2021/12/18 09:11:10;;;;;;;1.10;1.00;;;8.30;99.90;;;;;;5039940;28;20091;-43
2021/12/18 09:13:36;;;;;;;0.82;0.70;;;8.30;99.90;;;;;;5027656;28;20048;-42
2021/12/18 09:16:02;;;;;;;0.65;0.45;;;8.30;99.90;;;;;;5040181;28;20025;-43
2021/12/18 09:18:28;;;;;;;0.60;0.60;;;8.20;99.90;;;;;;5028517;28;20620;-43
2021/12/18 09:20:53;;;;;;;0.70;0.70;;;8.20;99.90;;;;;;5039576;28;20048;-43
2021/12/18 09:23:21;;;;;;;0.60;0.50;;;8.20;99.90;;;;;;5028334;28;20037;-44
2021/12/18 09:25:47;;;;;;;0.52;0.50;;;8.20;99.90;;;;;;5038647;28;20025;-43
2021/12/18 09:28:12;;;;;;;0.80;0.50;;;8.20;99.90;;;;;;5028658;28;20094;-43
2021/12/18 09:30:39;;;;;;;0.40;0.40;;;8.30;99.90;;;;;;5036331;28;20035;-43
2021/12/18 09:33:04;;;;;;;0.45;0.45;;;8.30;99.90;;;;;;5031804;28;20037;-43
2021/12/18 09:35:30;;;;;;;1.40;0.50;;;8.40;99.90;;;;;;5033178;28;20166;-43
2021/12/18 09:37:56;;;;;;;0.60;0.60;;;8.30;99.90;;;;;;5033843;28;20031;-43
2021/12/18 09:40:22;;;;;;;0.40;0.40;;;8.30;99.90;;;;;;5030966;28;20021;-43
2021/12/18 09:42:48;;;;;;;0.80;0.50;;;8.30;99.90;;;;;;5036434;28;20017;-43
2021/12/18 09:45:15;;;;;;;1.15;0.50;;;8.30;99.90;;;;;;5029470;28;20021;-44
2021/12/18 09:47:43;;;;;;;0.40;0.40;;;8.30;99.90;;;;;;5038714;28;20033;-43
2021/12/18 09:50:10;;;;;;;0.52;0.50;;;8.30;99.90;;;;;;5027722;28;20029;-43
2021/12/18 09:52:36;;;;;;;0.50;0.50;;;8.20;99.90;;;;;;5038608;28;20034;-44
2021/12/18 09:55:03;;;;;;;1.55;0.68;;;8.20;99.90;;;;;;5028310;28;20026;-43
2021/12/18 09:57:29;;;;;;;0.80;0.80;;;8.20;99.90;;;;;;5034901;28;20025;-44
2021/12/18 09:59:54;;;;;;;0.80;0.70;;;8.20;99.90;;;;;;5047950;28;20029;-43
2021/12/18 10:02:20;;;;;;;1.10;0.90;;;8.20;99.90;;;;;;5034806;28;20108;-43
2021/12/18 10:04:46;;;;;;;1.45;1.20;;;8.20;99.90;;;;;;5047429;28;20480;-46
2021/12/18 10:07:20;;;;;;;1.50;1.38;;;8.30;99.90;;;;;;5036461;28;20032;-43
2021/12/18 10:09:47;;;;;;;2.00;1.70;;;8.30;99.90;;;;;;5045915;28;20029;-43
2021/12/18 10:12:25;;;;;;;2.25;1.70;;;8.40;99.90;;;;;;5037710;28;20032;-43
2021/12/18 10:14:56;;;;;;;2.13;1.40;;;8.40;99.90;;;;;;5046410;28;20060;-42
2021/12/18 10:17:29;;;;;;;1.48;1.10;;;8.40;99.90;;;;;;5036852;28;20025;-44
2021/12/18 10:20:22;;;;;;;1.27;1.10;;;8.40;99.90;;;;;;5046137;28;20112;-43
2021/12/18 10:22:55;;;;;;;1.33;1.23;;;8.40;99.90;;;;;;5036065;28;20038;-42
2021/12/18 10:25:28;;;;;;;1.30;1.15;;;8.40;99.90;;;;;;5007537;28;20108;-43
2021/12/18 10:28:04;;;;;;;1.67;1.58;;;8.50;99.90;;;;;;5034108;28;20025;-44
2021/12/18 10:30:30;;;;;;;1.50;1.40;;;8.50;99.90;;;;;;5007831;28;20026;-44
2021/12/18 10:33:07;;;;;;;2.47;1.73;;;8.50;99.90;;;;;;5031812;28;20457;-43
2021/12/18 10:35:45;;;;;;;3.13;2.47;;;8.50;99.90;;;;;;5028500;28;20032;-42
2021/12/18 10:38:47;;;;;;;2.97;2.33;;;8.50;99.90;;;;;;5035958;28;20064;-44
2021/12/18 10:41:29;;;;;;;3.17;2.88;;;8.50;99.90;;;;;;5007735;28;20014;-43
2021/12/18 10:43:59;;;;;;;2.90;2.60;;;8.60;99.90;;;;;;5039624;28;20120;-43
2021/12/18 10:46:25;;;;;;;2.20;2.00;;;8.60;99.90;;;;;;5027167;28;20026;-43
2021/12/18 10:49:16;;;;;;;1.63;1.52;;;8.50;99.90;;;;;;5039566;28;20029;-44
2021/12/18 10:51:43;;;;;;;1.50;1.40;;;8.50;99.90;;;;;;5026357;28;20032;-43
2021/12/18 10:54:14;;;;;;;1.42;1.30;;;8.50;99.90;;;;;;5039691;28;20086;-44
2021/12/18 10:56:46;;;;;;;1.98;1.60;;;8.50;99.90;;;;;;5027117;28;20030;-44
2021/12/18 10:59:31;;;;;;;2.08;1.60;;;8.40;99.90;;;;;;5038688;28;20029;-43
2021/12/18 11:02:16;;;;;;;1.65;1.55;;;8.40;99.90;;;;;;5027735;28;20032;-44
2021/12/18 11:04:43;;;;;;;1.88;1.60;;;8.50;99.90;;;;;;5033747;28;20032;-43
2021/12/18 11:07:29;;;;;;;2.03;1.77;;;8.50;99.90;;;;;;5045893;28;20029;-43
2021/12/18 11:10:14;;;;;;;2.05;1.60;;;8.50;99.90;;;;;;5033471;28;20067;-43
2021/12/18 11:15:25;;;;;;;1.70;1.60;;;8.50;99.90;;;;;;5035445;28;20377;-43
2021/12/18 11:17:51;;;;;;;1.83;1.70;;;8.60;99.90;;;;;;5027124;28;20636;-44
2021/12/18 11:20:18;;;;;;;2.20;1.80;;;8.60;99.90;;;;;;5040229;28;20097;-44
2021/12/18 11:22:49;;;;;;;3.22;2.00;;;8.60;99.90;;;;;;5031127;28;20108;-43
2021/12/18 11:25:14;;;;;;;2.13;1.85;;;8.60;99.90;;;;;;5043323;28;20018;-43
2021/12/18 11:27:40;;;;;;;1.55;1.35;;;8.70;99.90;;;;;;5030369;28;20028;-44
2021/12/18 11:30:09;;;;;;;1.67;1.50;;;8.60;99.90;;;;;;5042887;28;20633;-44
2021/12/18 11:32:37;;;;;;;1.95;1.75;;;8.60;99.90;;;;;;5018011;28;20021;-43
2021/12/18 11:35:07;;;;;;;1.50;1.40;;;8.60;99.90;;;;;;5040424;28;20383;-44
2021/12/18 11:37:41;;;;;;;1.50;1.40;;;8.50;99.90;;;;;;5032088;28;20087;-42
2021/12/18 11:40:10;;;;;;;1.80;1.52;;;8.50;99.90;;;;;;5039769;28;20029;-44
2021/12/18 11:42:35;;;;;;;1.30;1.20;;;8.60;99.90;;;;;;5032402;28;20045;-44
2021/12/18 11:45:06;;;;;;;1.30;1.20;;;8.60;99.90;;;;;;5037975;28;20782;-43
2021/12/18 11:47:35;;;;;;;1.60;1.50;;;8.70;99.90;;;;;;5034947;28;20443;-43
2021/12/18 11:50:06;;;;;;;1.42;1.33;;;8.70;99.90;;;;;;5035572;28;20337;-44
2021/12/18 11:53:00;;;;;;;1.35;1.25;;;8.60;99.90;;;;;;5035345;28;20040;-43
2021/12/18 11:55:28;;;;;;;1.25;1.15;;;8.60;99.90;;;;;;5029395;28;20033;-43
2021/12/18 11:58:16;;;;;;;1.20;1.10;;;8.60;99.90;;;;;;5034602;28;20025;-43
2021/12/18 12:00:51;;;;;;;1.30;1.20;;;8.70;99.90;;;;;;5039009;28;20037;-42
2021/12/18 12:03:36;;;;;;;1.50;1.20;;;8.70;99.90;;;;;;5032494;28;20086;-45
2021/12/18 12:06:21;;;;;;;1.70;1.30;;;8.70;99.90;;;;;;5039474;28;20513;-44
2021/12/18 12:08:51;;;;;;;1.63;1.52;;;8.70;99.90;;;;;;5010321;28;20148;-43
2021/12/18 12:11:21;;;;;;;1.88;1.58;;;8.80;99.90;;;;;;5034544;28;20059;-44
2021/12/18 12:13:56;;;;;;;2.90;1.75;;;8.70;99.90;;;;;;5031475;28;20032;-43
2021/12/18 12:16:46;;;;;;;4.32;2.95;;;8.80;99.90;;;;;;5039163;28;20048;-43
2021/12/18 12:19:42;;;;;;;3.25;1.90;;;8.80;99.90;;;;;;5010492;28;20034;-42
2021/12/18 12:22:12;;;;;;;1.90;1.70;;;8.80;99.90;;;;;;5037751;28;20184;-43
2021/12/18 12:24:58;;;;;;;1.52;1.20;;;8.70;99.90;;;;;;5029936;28;20025;-43
2021/12/18 12:27:36;;;;;;;1.30;1.17;;;8.70;99.90;;;;;;5042253;28;20032;-43
2021/12/18 12:30:12;;;;;;;1.30;1.20;;;8.70;99.90;;;;;;5029504;28;20122;-44
2021/12/18 12:32:38;;;;;;;1.00;0.90;;;8.70;99.90;;;;;;5041189;28;20025;-43
2021/12/18 12:35:13;;;;;;;1.30;1.15;;;8.70;99.90;;;;;;5030053;28;20108;-45
2021/12/18 12:37:46;;;;;;;1.70;1.40;;;8.70;99.90;;;;;;5040981;28;20033;-44
2021/12/18 12:40:14;;;;;;;;;;;8.70;99.90;;;;;;5029940;28;20734;-44
2021/12/18 12:43:00;;;;;;;1.92;1.20;;;8.80;99.90;;;;;;5040699;28;19951;-43
2021/12/18 12:45:38;;;;;;;2.83;1.60;;;8.80;99.90;;;;;;5027688;28;20165;-41
2021/12/18 12:48:04;;;;;;;2.20;2.00;;;8.90;99.90;;;;;;5041811;28;20051;-43
2021/12/18 12:50:31;;;;;;;1.70;1.48;;;8.90;99.90;;;;;;5029496;28;20507;-44
2021/12/18 12:53:01;;;;;;;1.33;1.10;;;9.00;99.90;;;;;;5040889;28;20052;-43
2021/12/18 12:55:30;;;;;;;2.33;1.40;;;9.00;99.90;;;;;;5029495;28;20025;-44
2021/12/18 12:58:01;;;;;;;1.70;1.23;;;9.10;99.90;;;;;;5040169;28;20132;-44
2021/12/18 13:00:27;;;;;;;1.70;1.60;;;9.00;99.90;;;;;;5028893;28;20026;-43
2021/12/18 13:02:56;;;;;;;1.90;1.50;;;9.10;99.90;;;;;;5038840;28;20033;-44
2021/12/18 13:05:23;;;;;;;3.17;1.73;;;9.10;99.90;;;;;;5030953;28;20029;-44
2021/12/18 13:07:54;;;;;;;1.35;1.23;;;9.10;99.90;;;;;;5036399;28;20045;-43
2021/12/18 13:10:27;;;;;;;1.55;1.30;;;9.10;99.90;;;;;;5033874;28;20033;-44
2021/12/18 13:12:54;;;;;;;1.17;1.10;;;9.10;99.90;;;;;;5034859;28;20112;-44
2021/12/18 13:15:20;;;;;;;1.35;1.25;;;9.10;99.90;;;;;;5034823;28;20021;-44
2021/12/18 13:17:47;;;;;;;1.20;1.10;;;9.10;99.90;;;;;;5032712;28;20559;-44
2021/12/18 13:20:13;;;;;;;1.55;1.38;;;9.10;99.90;;;;;;5036198;28;20140;-43
2021/12/18 13:22:38;;;;;;;2.00;1.80;;;9.10;99.90;;;;;;5030182;28;20077;-44
2021/12/18 13:25:14;;;;;;;2.08;1.55;;;9.10;99.90;;;;;;5039629;28;20047;-44
2021/12/18 13:27:43;;;;;;;1.65;1.42;;;9.20;99.90;;;;;;5029785;28;20025;-43
2021/12/18 13:30:20;;;;;;;2.33;1.63;;;9.20;99.90;;;;;;5039425;28;20034;-43
2021/12/18 13:33:00;;;;;;;1.98;1.58;;;9.20;99.90;;;;;;5029760;28;20012;-44
2021/12/18 13:35:28;;;;;;;2.42;1.55;;;9.20;99.90;;;;;;5037892;28;20044;-44
2021/12/18 13:38:09;;;;;;;1.58;1.42;;;9.20;99.90;;;;;;5046723;28;20033;-43
2021/12/18 13:40:44;;;;;;;2.33;1.55;;;9.20;99.90;;;;;;5026400;28;20480;-43
2021/12/18 13:43:21;;;;;;;1.70;1.52;;;9.20;99.90;;;;;;5043084;28;20112;-44
2021/12/18 13:45:57;;;;;;;1.40;1.30;;;9.20;99.90;;;;;;5037840;28;20061;-42
2021/12/18 13:48:26;;;;;;;1.80;1.70;;;9.20;99.90;;;;;;5046171;28;20100;-43
2021/12/18 13:51:13;;;;;;;1.83;1.60;;;9.20;99.90;;;;;;5026165;28;20762;-42